sensor_id;sensor_type;location;lat;lon;timestamp;pressure;altitude;pressure_sealevel;temperature;humidity
12991;BME280;6560;57.692;11.958;2023-03-19T00:01:54;101072.47;;;17.31;100.00
12991;BME280;6560;57.692;11.958;2023-03-19T00:04:21;101097.47;;;17.17;100.00
12991;BME280;6560;57.692;11.958;2023-03-19T00:06:48;101096.47;;;16.98;100.00
12991;BME280;6560;57.692;11.958;2023-03-19T00:09:14;101103.28;;;17.09;100.00
12991;BME280;6560;57.692;11.958;2023-03-19T00:11:40;101063.50;;;17.12;100.00
12991;BME280;6560;57.692;11.958;2023-03-19T00:14:06;101048.94;;;17.06;100.00
12991;BME280;6560;57.692;11.958;2023-03-19T00:16:32;101103.34;;;16.79;100.00
12991;BME280;6560;57.692;11.958;2023-03-19T00:18:58;101116.91;;;16.83;100.00
12991;BME280;6560;57.692;11.958;2023-03-19T00:21:23;101108.72;;;16.49;100.00
12991;BME280;6560;57.692;11.958;2023-03-19T00:23:49;101120.25;;;16.79;100.00
12991;BME280;6560;57.692;11.958;2023-03-19T00:26:16;101115.66;;;16.77;100.00
12991;BME280;6560;57.692;11.958;2023-03-19T00:28:42;101114.50;;;16.71;100.00
12991;BME280;6560;57.692;11.958;2023-03-19T00:31:10;101101.09;;;16.55;100.00
12991;BME280;6560;57.692;11.958;2023-03-19T00:33:36;101119.94;;;16.44;100.00
12991;BME280;6560;57.692;11.958;2023-03-19T00:36:03;101096.72;;;16.41;100.00
12991;BME280;6560;57.692;11.958;2023-03-19T00:38:30;101067.28;;;16.38;100.00
12991;BME280;6560;57.692;11.958;2023-03-19T00:40:56;101120.72;;;17.19;100.00
12991;BME280;6560;57.692;11.958;2023-03-19T00:43:21;101114.72;;;17.23;100.00
12991;BME280;6560;57.692;11.958;2023-03-19T00:45:47;101093.88;;;16.07;100.00
12991;BME280;6560;57.692;11.958;2023-03-19T00:48:13;101078.63;;;16.19;100.00
12991;BME280;6560;57.692;11.958;2023-03-19T00:50:38;101093.16;;;17.19;100.00
12991;BME280;6560;57.692;11.958;2023-03-19T00:53:04;101116.53;;;16.92;100.00
12991;BME280;6560;57.692;11.958;2023-03-19T00:55:30;101114.44;;;17.02;100.00
12991;BME280;6560;57.692;11.958;2023-03-19T00:57:55;101110.28;;;16.91;100.00
12991;BME280;6560;57.692;11.958;2023-03-19T01:00:21;101109.69;;;16.97;100.00
12991;BME280;6560;57.692;11.958;2023-03-19T01:02:46;101124.44;;;16.90;100.00
12991;BME280;6560;57.692;11.958;2023-03-19T01:05:12;101122.00;;;16.95;100.00
12991;BME280;6560;57.692;11.958;2023-03-19T01:07:38;101116.81;;;16.82;100.00
12991;BME280;6560;57.692;11.958;2023-03-19T01:10:04;101116.25;;;16.71;100.00
12991;BME280;6560;57.692;11.958;2023-03-19T01:12:30;101117.44;;;16.92;100.00
12991;BME280;6560;57.692;11.958;2023-03-19T01:14:55;101089.81;;;16.90;100.00
12991;BME280;6560;57.692;11.958;2023-03-19T01:17:21;101123.50;;;16.90;100.00
12991;BME280;6560;57.692;11.958;2023-03-19T01:19:48;101102.41;;;17.25;100.00
12991;BME280;6560;57.692;11.958;2023-03-19T01:22:14;101114.44;;;17.02;100.00
12991;BME280;6560;57.692;11.958;2023-03-19T01:24:41;101081.06;;;16.31;100.00
12991;BME280;6560;57.692;11.958;2023-03-19T01:27:06;101096.69;;;16.70;100.00
12991;BME280;6560;57.692;11.958;2023-03-19T01:29:32;101107.63;;;17.07;100.00
12991;BME280;6560;57.692;11.958;2023-03-19T01:31:58;101062.28;;;16.59;100.00
12991;BME280;6560;57.692;11.958;2023-03-19T01:34:24;101124.91;;;16.83;100.00
12991;BME280;6560;57.692;11.958;2023-03-19T01:36:49;101093.00;;;16.38;100.00
12991;BME280;6560;57.692;11.958;2023-03-19T01:39:15;101111.41;;;16.49;100.00
12991;BME280;6560;57.692;11.958;2023-03-19T01:41:40;101068.16;;;16.22;100.00
12991;BME280;6560;57.692;11.958;2023-03-19T01:44:34;101116.75;;;16.34;100.00
12991;BME280;6560;57.692;11.958;2023-03-19T01:47:03;101094.03;;;16.10;100.00
12991;BME280;6560;57.692;11.958;2023-03-19T01:49:32;101118.91;;;16.11;100.00
12991;BME280;6560;57.692;11.958;2023-03-19T01:52:00;101123.59;;;16.00;100.00
12991;BME280;6560;57.692;11.958;2023-03-19T01:54:27;101055.38;;;15.57;100.00
12991;BME280;6560;57.692;11.958;2023-03-19T01:56:59;101120.84;;;15.99;100.00
12991;BME280;6560;57.692;11.958;2023-03-19T01:59:33;101119.81;;;15.97;100.00
12991;BME280;6560;57.692;11.958;2023-03-19T02:04:37;101121.84;;;15.71;100.00
12991;BME280;6560;57.692;11.958;2023-03-19T02:07:03;101112.41;;;15.76;100.00
12991;BME280;6560;57.692;11.958;2023-03-19T02:09:30;101122.50;;;15.67;100.00
12991;BME280;6560;57.692;11.958;2023-03-19T02:11:56;101104.97;;;15.71;100.00
12991;BME280;6560;57.692;11.958;2023-03-19T02:14:23;101118.25;;;16.15;100.00
12991;BME280;6560;57.692;11.958;2023-03-19T02:16:49;101119.38;;;16.04;100.00
12991;BME280;6560;57.692;11.958;2023-03-19T02:22:21;101118.91;;;16.25;100.00
12991;BME280;6560;57.692;11.958;2023-03-19T02:24:56;101130.69;;;16.60;100.00
12991;BME280;6560;57.692;11.958;2023-03-19T02:27:24;101128.28;;;16.50;100.00
12991;BME280;6560;57.692;11.958;2023-03-19T02:29:49;101102.06;;;16.41;100.00
12991;BME280;6560;57.692;11.958;2023-03-19T02:32:15;101120.41;;;16.51;100.00
12991;BME280;6560;57.692;11.958;2023-03-19T02:34:42;101115.16;;;16.53;100.00
12991;BME280;6560;57.692;11.958;2023-03-19T02:37:10;101124.91;;;16.52;100.00
12991;BME280;6560;57.692;11.958;2023-03-19T02:42:14;101118.66;;;16.66;100.00
12991;BME280;6560;57.692;11.958;2023-03-19T02:44:40;101123.75;;;15.31;100.00
12991;BME280;6560;57.692;11.958;2023-03-19T02:47:06;101124.31;;;16.27;100.00
12991;BME280;6560;57.692;11.958;2023-03-19T02:49:31;101126.84;;;16.40;100.00
12991;BME280;6560;57.692;11.958;2023-03-19T02:51:57;101131.03;;;16.20;100.00
12991;BME280;6560;57.692;11.958;2023-03-19T02:54:23;101133.13;;;16.57;100.00
12991;BME280;6560;57.692;11.958;2023-03-19T02:56:48;101117.50;;;16.32;100.00
12991;BME280;6560;57.692;11.958;2023-03-19T02:59:23;101129.81;;;16.15;100.00
12991;BME280;6560;57.692;11.958;2023-03-19T03:01:49;101113.03;;;16.02;100.00
12991;BME280;6560;57.692;11.958;2023-03-19T03:04:15;101093.63;;;15.88;100.00
12991;BME280;6560;57.692;11.958;2023-03-19T03:06:41;101078.03;;;15.07;100.00
12991;BME280;6560;57.692;11.958;2023-03-19T03:09:08;101136.88;;;15.43;100.00
12991;BME280;6560;57.692;11.958;2023-03-19T03:11:33;101107.38;;;15.81;100.00
12991;BME280;6560;57.692;11.958;2023-03-19T03:13:59;101126.31;;;16.31;100.00
12991;BME280;6560;57.692;11.958;2023-03-19T03:16:24;101003.59;;;15.65;100.00
12991;BME280;6560;57.692;11.958;2023-03-19T03:18:50;101133.13;;;15.67;100.00
12991;BME280;6560;57.692;11.958;2023-03-19T03:21:16;101135.41;;;15.76;100.00
12991;BME280;6560;57.692;11.958;2023-03-19T03:23:44;101144.59;;;15.95;100.00
12991;BME280;6560;57.692;11.958;2023-03-19T03:26:10;101109.75;;;15.76;100.00
12991;BME280;6560;57.692;11.958;2023-03-19T03:28:36;101154.59;;;16.00;100.00
12991;BME280;6560;57.692;11.958;2023-03-19T03:31:02;101138.63;;;15.70;100.00
12991;BME280;6560;57.692;11.958;2023-03-19T03:33:28;101139.53;;;15.71;100.00
12991;BME280;6560;57.692;11.958;2023-03-19T03:35:54;101140.47;;;16.01;100.00
12991;BME280;6560;57.692;11.958;2023-03-19T03:38:20;101141.81;;;16.09;100.00
12991;BME280;6560;57.692;11.958;2023-03-19T03:40:49;101134.97;;;15.98;100.00
12991;BME280;6560;57.692;11.958;2023-03-19T03:43:15;101116.09;;;15.93;100.00
12991;BME280;6560;57.692;11.958;2023-03-19T03:45:43;101101.59;;;15.73;100.00
12991;BME280;6560;57.692;11.958;2023-03-19T03:48:08;101125.63;;;15.75;100.00
12991;BME280;6560;57.692;11.958;2023-03-19T03:50:34;101133.22;;;15.83;100.00
12991;BME280;6560;57.692;11.958;2023-03-19T03:53:00;101124.19;;;15.52;100.00
12991;BME280;6560;57.692;11.958;2023-03-19T03:55:26;101118.66;;;15.91;100.00
12991;BME280;6560;57.692;11.958;2023-03-19T03:57:52;101137.00;;;15.87;100.00
12991;BME280;6560;57.692;11.958;2023-03-19T04:00:18;101118.28;;;15.43;100.00
12991;BME280;6560;57.692;11.958;2023-03-19T04:02:44;101040.50;;;15.16;100.00
12991;BME280;6560;57.692;11.958;2023-03-19T04:05:10;101146.97;;;15.91;100.00
12991;BME280;6560;57.692;11.958;2023-03-19T04:07:36;101107.19;;;15.92;100.00
12991;BME280;6560;57.692;11.958;2023-03-19T04:10:02;101134.78;;;15.80;100.00
12991;BME280;6560;57.692;11.958;2023-03-19T04:12:28;101093.72;;;15.75;100.00
12991;BME280;6560;57.692;11.958;2023-03-19T04:14:53;101147.81;;;16.19;100.00
12991;BME280;6560;57.692;11.958;2023-03-19T04:17:25;101076.56;;;15.99;100.00
12991;BME280;6560;57.692;11.958;2023-03-19T04:19:51;101146.88;;;16.33;100.00
12991;BME280;6560;57.692;11.958;2023-03-19T04:22:16;101136.41;;;16.22;100.00
12991;BME280;6560;57.692;11.958;2023-03-19T04:24:42;101150.00;;;16.12;100.00
12991;BME280;6560;57.692;11.958;2023-03-19T04:27:08;101146.53;;;16.13;100.00
12991;BME280;6560;57.692;11.958;2023-03-19T04:29:33;101140.84;;;16.07;100.00
12991;BME280;6560;57.692;11.958;2023-03-19T04:31:58;101134.81;;;15.52;100.00
12991;BME280;6560;57.692;11.958;2023-03-19T04:34:24;101155.47;;;15.56;100.00
12991;BME280;6560;57.692;11.958;2023-03-19T04:36:50;101157.50;;;15.60;100.00
12991;BME280;6560;57.692;11.958;2023-03-19T04:39:16;101140.31;;;15.12;100.00
12991;BME280;6560;57.692;11.958;2023-03-19T04:41:42;101159.78;;;15.69;100.00
12991;BME280;6560;57.692;11.958;2023-03-19T04:44:09;101160.84;;;15.15;100.00
12991;BME280;6560;57.692;11.958;2023-03-19T04:46:35;101080.41;;;15.18;100.00
12991;BME280;6560;57.692;11.958;2023-03-19T04:49:01;101139.75;;;15.46;100.00
12991;BME280;6560;57.692;11.958;2023-03-19T04:51:26;101158.44;;;15.61;100.00
12991;BME280;6560;57.692;11.958;2023-03-19T04:53:52;101142.56;;;15.06;100.00
12991;BME280;6560;57.692;11.958;2023-03-19T04:56:18;101152.00;;;15.01;100.00
12991;BME280;6560;57.692;11.958;2023-03-19T04:58:44;101158.97;;;14.86;100.00
12991;BME280;6560;57.692;11.958;2023-03-19T05:01:09;101098.19;;;14.91;100.00
12991;BME280;6560;57.692;11.958;2023-03-19T05:03:35;101128.19;;;15.03;100.00
12991;BME280;6560;57.692;11.958;2023-03-19T05:06:01;101014.91;;;14.89;100.00
12991;BME280;6560;57.692;11.958;2023-03-19T05:08:26;101087.97;;;15.39;100.00
12991;BME280;6560;57.692;11.958;2023-03-19T05:10:52;101086.63;;;14.90;100.00
12991;BME280;6560;57.692;11.958;2023-03-19T05:13:17;101161.81;;;15.17;100.00
12991;BME280;6560;57.692;11.958;2023-03-19T05:15:43;101159.50;;;15.64;100.00
12991;BME280;6560;57.692;11.958;2023-03-19T05:18:10;101120.63;;;15.24;100.00
12991;BME280;6560;57.692;11.958;2023-03-19T05:20:36;101164.66;;;15.61;100.00
12991;BME280;6560;57.692;11.958;2023-03-19T05:23:01;101161.72;;;15.71;100.00
12991;BME280;6560;57.692;11.958;2023-03-19T05:25:27;101165.59;;;15.62;100.00
12991;BME280;6560;57.692;11.958;2023-03-19T05:27:54;101158.25;;;15.72;100.00
12991;BME280;6560;57.692;11.958;2023-03-19T05:30:20;101165.84;;;15.66;100.00
12991;BME280;6560;57.692;11.958;2023-03-19T05:32:45;101174.56;;;15.50;100.00
12991;BME280;6560;57.692;11.958;2023-03-19T05:35:12;101183.34;;;15.49;100.00
12991;BME280;6560;57.692;11.958;2023-03-19T05:37:37;101184.63;;;15.69;100.00
12991;BME280;6560;57.692;11.958;2023-03-19T05:40:04;101174.09;;;15.71;100.00
12991;BME280;6560;57.692;11.958;2023-03-19T05:42:29;101180.78;;;15.64;100.00
12991;BME280;6560;57.692;11.958;2023-03-19T05:44:55;101178.91;;;15.48;100.00
12991;BME280;6560;57.692;11.958;2023-03-19T05:47:21;101194.19;;;15.95;100.00
12991;BME280;6560;57.692;11.958;2023-03-19T05:49:46;101179.81;;;16.06;100.00
12991;BME280;6560;57.692;11.958;2023-03-19T05:52:12;101135.88;;;15.83;100.00
12991;BME280;6560;57.692;11.958;2023-03-19T05:54:37;101119.47;;;16.20;100.00
12991;BME280;6560;57.692;11.958;2023-03-19T05:57:03;101122.09;;;16.80;100.00
12991;BME280;6560;57.692;11.958;2023-03-19T05:59:29;101165.31;;;17.07;100.00
12991;BME280;6560;57.692;11.958;2023-03-19T06:01:55;101163.75;;;17.10;100.00
12991;BME280;6560;57.692;11.958;2023-03-19T06:04:20;101180.91;;;16.54;100.00
12991;BME280;6560;57.692;11.958;2023-03-19T06:06:45;101122.88;;;16.48;100.00
12991;BME280;6560;57.692;11.958;2023-03-19T06:09:11;101195.78;;;16.06;100.00
12991;BME280;6560;57.692;11.958;2023-03-19T06:11:37;101164.75;;;16.21;100.00
12991;BME280;6560;57.692;11.958;2023-03-19T06:14:05;101184.50;;;15.81;100.00
12991;BME280;6560;57.692;11.958;2023-03-19T06:16:31;101190.91;;;16.28;100.00
12991;BME280;6560;57.692;11.958;2023-03-19T06:18:57;101128.38;;;16.20;100.00
12991;BME280;6560;57.692;11.958;2023-03-19T06:21:23;101170.09;;;15.92;100.00
12991;BME280;6560;57.692;11.958;2023-03-19T06:23:54;101121.00;;;16.16;100.00
12991;BME280;6560;57.692;11.958;2023-03-19T06:26:20;101182.44;;;15.77;100.00
12991;BME280;6560;57.692;11.958;2023-03-19T06:28:45;101189.88;;;16.41;100.00
12991;BME280;6560;57.692;11.958;2023-03-19T06:31:11;101190.81;;;16.12;100.00
12991;BME280;6560;57.692;11.958;2023-03-19T06:33:36;101197.88;;;16.70;100.00
12991;BME280;6560;57.692;11.958;2023-03-19T06:36:02;101194.03;;;16.65;100.00
12991;BME280;6560;57.692;11.958;2023-03-19T06:38:27;101197.94;;;16.87;100.00
12991;BME280;6560;57.692;11.958;2023-03-19T06:40:53;101154.34;;;16.70;100.00
12991;BME280;6560;57.692;11.958;2023-03-19T06:43:18;101195.81;;;17.12;100.00
12991;BME280;6560;57.692;11.958;2023-03-19T06:45:44;101168.41;;;17.14;100.00
12991;BME280;6560;57.692;11.958;2023-03-19T06:48:11;101160.88;;;16.46;100.00
12991;BME280;6560;57.692;11.958;2023-03-19T06:50:36;101206.09;;;15.72;100.00
12991;BME280;6560;57.692;11.958;2023-03-19T06:53:02;101213.31;;;16.47;100.00
12991;BME280;6560;57.692;11.958;2023-03-19T06:55:28;101217.91;;;16.64;100.00
12991;BME280;6560;57.692;11.958;2023-03-19T06:57:55;101187.41;;;16.44;100.00
12991;BME280;6560;57.692;11.958;2023-03-19T07:00:21;101211.16;;;16.85;100.00
12991;BME280;6560;57.692;11.958;2023-03-19T07:02:47;101146.03;;;16.34;100.00
12991;BME280;6560;57.692;11.958;2023-03-19T07:05:12;101162.38;;;15.97;100.00
12991;BME280;6560;57.692;11.958;2023-03-19T07:07:38;101092.50;;;15.84;100.00
12991;BME280;6560;57.692;11.958;2023-03-19T07:10:04;101215.78;;;16.29;100.00
12991;BME280;6560;57.692;11.958;2023-03-19T07:12:30;101097.72;;;16.12;100.00
12991;BME280;6560;57.692;11.958;2023-03-19T07:14:56;101230.06;;;16.75;100.00
12991;BME280;6560;57.692;11.958;2023-03-19T07:17:22;101212.47;;;17.40;100.00
12991;BME280;6560;57.692;11.958;2023-03-19T07:19:48;101209.69;;;16.76;100.00
12991;BME280;6560;57.692;11.958;2023-03-19T07:22:14;101219.56;;;16.32;100.00
12991;BME280;6560;57.692;11.958;2023-03-19T07:24:40;101208.25;;;16.66;100.00
12991;BME280;6560;57.692;11.958;2023-03-19T07:27:05;101172.22;;;16.12;100.00
12991;BME280;6560;57.692;11.958;2023-03-19T07:29:31;101194.22;;;16.10;100.00
12991;BME280;6560;57.692;11.958;2023-03-19T07:31:57;101215.69;;;16.71;100.00
12991;BME280;6560;57.692;11.958;2023-03-19T07:34:22;101080.13;;;15.85;100.00
12991;BME280;6560;57.692;11.958;2023-03-19T07:36:48;101187.06;;;16.23;100.00
12991;BME280;6560;57.692;11.958;2023-03-19T07:39:14;101208.50;;;16.56;100.00
12991;BME280;6560;57.692;11.958;2023-03-19T07:41:39;101152.31;;;16.06;100.00
12991;BME280;6560;57.692;11.958;2023-03-19T07:44:05;101164.28;;;15.55;100.00
12991;BME280;6560;57.692;11.958;2023-03-19T07:46:31;101167.81;;;16.13;100.00
12991;BME280;6560;57.692;11.958;2023-03-19T07:48:57;101155.94;;;16.22;100.00
12991;BME280;6560;57.692;11.958;2023-03-19T07:51:22;101119.72;;;16.10;100.00
12991;BME280;6560;57.692;11.958;2023-03-19T07:53:48;101201.88;;;16.79;100.00
12991;BME280;6560;57.692;11.958;2023-03-19T07:56:13;101201.72;;;16.61;100.00
12991;BME280;6560;57.692;11.958;2023-03-19T07:58:39;101195.31;;;16.88;100.00
12991;BME280;6560;57.692;11.958;2023-03-19T08:01:04;101192.00;;;17.39;100.00
12991;BME280;6560;57.692;11.958;2023-03-19T08:03:31;101163.16;;;16.54;100.00
12991;BME280;6560;57.692;11.958;2023-03-19T08:05:57;101076.50;;;15.68;100.00
12991;BME280;6560;57.692;11.958;2023-03-19T08:08:23;101199.63;;;16.41;100.00
12991;BME280;6560;57.692;11.958;2023-03-19T08:10:48;101079.66;;;15.05;100.00
12991;BME280;6560;57.692;11.958;2023-03-19T08:13:15;101184.34;;;16.67;100.00
12991;BME280;6560;57.692;11.958;2023-03-19T08:15:40;101146.97;;;16.20;100.00
12991;BME280;6560;57.692;11.958;2023-03-19T08:18:06;101144.81;;;15.56;100.00
12991;BME280;6560;57.692;11.958;2023-03-19T08:20:32;101184.13;;;16.19;100.00
12991;BME280;6560;57.692;11.958;2023-03-19T08:22:57;101204.50;;;16.18;100.00
12991;BME280;6560;57.692;11.958;2023-03-19T08:25:23;101175.13;;;16.02;100.00
12991;BME280;6560;57.692;11.958;2023-03-19T08:27:49;101164.16;;;16.56;100.00
12991;BME280;6560;57.692;11.958;2023-03-19T08:30:15;101167.59;;;16.39;100.00
12991;BME280;6560;57.692;11.958;2023-03-19T08:32:41;101163.16;;;16.54;100.00
12991;BME280;6560;57.692;11.958;2023-03-19T08:35:09;101193.56;;;16.43;100.00
12991;BME280;6560;57.692;11.958;2023-03-19T08:37:35;101110.88;;;17.02;100.00
12991;BME280;6560;57.692;11.958;2023-03-19T08:40:01;101098.16;;;17.12;100.00
12991;BME280;6560;57.692;11.958;2023-03-19T08:42:26;101068.06;;;17.81;100.00
12991;BME280;6560;57.692;11.958;2023-03-19T08:44:53;101124.16;;;17.83;100.00
12991;BME280;6560;57.692;11.958;2023-03-19T08:47:19;101183.69;;;18.85;100.00
12991;BME280;6560;57.692;11.958;2023-03-19T08:49:49;101181.13;;;18.53;100.00
12991;BME280;6560;57.692;11.958;2023-03-19T08:52:15;101152.59;;;18.52;100.00
12991;BME280;6560;57.692;11.958;2023-03-19T08:54:40;101179.41;;;18.89;100.00
12991;BME280;6560;57.692;11.958;2023-03-19T08:57:06;101152.50;;;19.03;100.00
12991;BME280;6560;57.692;11.958;2023-03-19T08:59:31;101155.25;;;19.24;100.00
12991;BME280;6560;57.692;11.958;2023-03-19T09:01:57;101170.38;;;19.24;100.00
12991;BME280;6560;57.692;11.958;2023-03-19T09:04:22;101061.53;;;18.28;100.00
12991;BME280;6560;57.692;11.958;2023-03-19T09:06:48;101133.53;;;18.80;100.00
12991;BME280;6560;57.692;11.958;2023-03-19T09:09:20;101170.97;;;18.99;100.00
12991;BME280;6560;57.692;11.958;2023-03-19T09:11:46;101162.66;;;18.40;100.00
12991;BME280;6560;57.692;11.958;2023-03-19T09:14:14;101154.91;;;19.17;100.00
12991;BME280;6560;57.692;11.958;2023-03-19T09:16:41;101097.72;;;18.57;100.00
12991;BME280;6560;57.692;11.958;2023-03-19T09:19:08;101188.31;;;19.07;100.00
12991;BME280;6560;57.692;11.958;2023-03-19T09:21:34;101101.56;;;18.81;100.00
12991;BME280;6560;57.692;11.958;2023-03-19T09:24:00;101160.84;;;19.29;100.00
12991;BME280;6560;57.692;11.958;2023-03-19T09:26:26;101178.53;;;19.07;100.00
12991;BME280;6560;57.692;11.958;2023-03-19T09:28:51;101126.53;;;18.82;100.00
12991;BME280;6560;57.692;11.958;2023-03-19T09:31:17;101171.81;;;19.93;100.00
12991;BME280;6560;57.692;11.958;2023-03-19T09:33:42;101115.31;;;19.27;100.00
12991;BME280;6560;57.692;11.958;2023-03-19T09:36:08;101195.72;;;20.09;100.00
12991;BME280;6560;57.692;11.958;2023-03-19T09:38:34;101191.09;;;20.05;100.00
12991;BME280;6560;57.692;11.958;2023-03-19T09:41:18;101197.81;;;19.76;100.00
12991;BME280;6560;57.692;11.958;2023-03-19T09:44:19;101205.34;;;19.84;100.00
12991;BME280;6560;57.692;11.958;2023-03-19T09:46:57;101199.25;;;19.31;100.00
12991;BME280;6560;57.692;11.958;2023-03-19T09:49:33;101193.09;;;19.51;100.00
12991;BME280;6560;57.692;11.958;2023-03-19T09:55:01;101185.97;;;19.32;100.00
12991;BME280;6560;57.692;11.958;2023-03-19T09:57:30;101194.28;;;19.96;100.00
12991;BME280;6560;57.692;11.958;2023-03-19T09:59:57;101192.28;;;18.44;100.00
12991;BME280;6560;57.692;11.958;2023-03-19T10:02:28;101200.09;;;18.93;100.00
12991;BME280;6560;57.692;11.958;2023-03-19T10:05:07;101176.22;;;18.26;100.00
12991;BME280;6560;57.692;11.958;2023-03-19T10:10:09;101196.38;;;19.45;100.00
12991;BME280;6560;57.692;11.958;2023-03-19T10:13:01;101206.16;;;19.45;100.00
12991;BME280;6560;57.692;11.958;2023-03-19T10:15:34;101187.03;;;19.36;100.00
12991;BME280;6560;57.692;11.958;2023-03-19T10:18:06;101162.06;;;19.18;100.00
12991;BME280;6560;57.692;11.958;2023-03-19T10:26:05;101201.53;;;19.99;100.00
12991;BME280;6560;57.692;11.958;2023-03-19T10:28:33;101186.88;;;19.90;100.00
12991;BME280;6560;57.692;11.958;2023-03-19T10:36:37;101158.81;;;19.05;100.00
12991;BME280;6560;57.692;11.958;2023-03-19T10:39:03;101209.41;;;18.31;100.00
12991;BME280;6560;57.692;11.958;2023-03-19T10:44:33;101168.44;;;19.39;100.00
12991;BME280;6560;57.692;11.958;2023-03-19T10:47:12;101207.22;;;19.29;100.00
12991;BME280;6560;57.692;11.958;2023-03-19T10:49:38;101206.97;;;18.88;100.00
12991;BME280;6560;57.692;11.958;2023-03-19T10:52:08;101142.88;;;18.70;100.00
12991;BME280;6560;57.692;11.958;2023-03-19T10:54:42;101209.38;;;19.19;100.00
12991;BME280;6560;57.692;11.958;2023-03-19T10:57:21;101197.78;;;18.47;100.00
12991;BME280;6560;57.692;11.958;2023-03-19T10:59:47;101213.16;;;19.24;100.00
12991;BME280;6560;57.692;11.958;2023-03-19T11:02:19;101028.66;;;19.43;100.00
12991;BME280;6560;57.692;11.958;2023-03-19T11:04:45;101182.13;;;20.65;100.00
12991;BME280;6560;57.692;11.958;2023-03-19T11:07:18;101160.78;;;20.46;100.00
12991;BME280;6560;57.692;11.958;2023-03-19T11:09:47;101185.00;;;19.49;100.00
12991;BME280;6560;57.692;11.958;2023-03-19T11:12:39;101195.28;;;19.98;100.00
12991;BME280;6560;57.692;11.958;2023-03-19T11:15:36;101200.44;;;19.94;100.00
12991;BME280;6560;57.692;11.958;2023-03-19T11:18:22;101099.63;;;18.79;100.00
12991;BME280;6560;57.692;11.958;2023-03-19T11:20:54;101196.63;;;19.50;100.00
12991;BME280;6560;57.692;11.958;2023-03-19T11:23:20;101173.31;;;19.10;100.00
12991;BME280;6560;57.692;11.958;2023-03-19T11:25:49;101199.44;;;19.53;100.00
12991;BME280;6560;57.692;11.958;2023-03-19T11:28:22;101119.19;;;19.15;100.00
12991;BME280;6560;57.692;11.958;2023-03-19T11:30:55;101200.72;;;19.61;100.00
12991;BME280;6560;57.692;11.958;2023-03-19T11:33:42;101191.38;;;20.11;100.00
12991;BME280;6560;57.692;11.958;2023-03-19T11:39:06;101193.06;;;20.92;100.00
12991;BME280;6560;57.692;11.958;2023-03-19T11:47:20;101184.56;;;20.81;100.00
12991;BME280;6560;57.692;11.958;2023-03-19T11:52:36;101200.38;;;20.96;100.00
12991;BME280;6560;57.692;11.958;2023-03-19T11:55:21;101190.34;;;20.69;100.00
12991;BME280;6560;57.692;11.958;2023-03-19T11:57:58;101180.81;;;20.76;100.00
12991;BME280;6560;57.692;11.958;2023-03-19T12:00:47;101180.72;;;20.75;100.00
12991;BME280;6560;57.692;11.958;2023-03-19T12:14:45;101143.38;;;21.70;100.00
12991;BME280;6560;57.692;11.958;2023-03-19T12:26:01;101140.72;;;21.70;100.00
12991;BME280;6560;57.692;11.958;2023-03-19T12:28:37;101135.53;;;22.00;100.00
12991;BME280;6560;57.692;11.958;2023-03-19T12:31:27;101134.19;;;22.12;100.00
12991;BME280;6560;57.692;11.958;2023-03-19T12:36:47;101089.81;;;21.97;100.00
12991;BME280;6560;57.692;11.958;2023-03-19T12:39:17;101139.16;;;22.00;100.00
12991;BME280;6560;57.692;11.958;2023-03-19T12:41:45;101136.03;;;22.13;100.00
12991;BME280;6560;57.692;11.958;2023-03-19T12:44:20;101139.00;;;21.96;100.00
12991;BME280;6560;57.692;11.958;2023-03-19T12:47:06;101134.69;;;22.01;100.00
12991;BME280;6560;57.692;11.958;2023-03-19T12:49:36;101132.34;;;22.10;100.00
12991;BME280;6560;57.692;11.958;2023-03-19T12:52:39;101135.28;;;21.68;100.00
12991;BME280;6560;57.692;11.958;2023-03-19T12:55:46;101100.66;;;22.26;100.00
12991;BME280;6560;57.692;11.958;2023-03-19T12:58:19;101108.53;;;22.20;100.00
12991;BME280;6560;57.692;11.958;2023-03-19T13:01:02;101114.22;;;22.30;100.00
12991;BME280;6560;57.692;11.958;2023-03-19T13:03:40;101101.34;;;22.73;100.00
12991;BME280;6560;57.692;11.958;2023-03-19T13:08:57;101105.63;;;22.14;100.00
12991;BME280;6560;57.692;11.958;2023-03-19T13:11:43;101094.63;;;22.60;100.00
12991;BME280;6560;57.692;11.958;2023-03-19T13:14:31;101099.38;;;23.26;100.00
12991;BME280;6560;57.692;11.958;2023-03-19T13:19:51;101066.63;;;23.09;100.00
12991;BME280;6560;57.692;11.958;2023-03-19T13:22:31;101104.19;;;23.36;100.00
12991;BME280;6560;57.692;11.958;2023-03-19T13:25:00;101077.69;;;23.81;100.00
12991;BME280;6560;57.692;11.958;2023-03-19T13:27:30;101059.38;;;22.78;100.00
12991;BME280;6560;57.692;11.958;2023-03-19T13:30:00;101088.34;;;22.87;100.00
12991;BME280;6560;57.692;11.958;2023-03-19T13:38:19;101085.41;;;22.25;100.00
12991;BME280;6560;57.692;11.958;2023-03-19T13:56:17;101081.28;;;21.59;100.00
12991;BME280;6560;57.692;11.958;2023-03-19T14:01:42;101055.13;;;19.75;100.00
12991;BME280;6560;57.692;11.958;2023-03-19T14:04:38;101076.97;;;20.93;100.00
12991;BME280;6560;57.692;11.958;2023-03-19T14:07:11;101080.81;;;21.01;100.00
12991;BME280;6560;57.692;11.958;2023-03-19T14:15:00;101052.91;;;20.29;100.00
12991;BME280;6560;57.692;11.958;2023-03-19T14:17:38;101035.78;;;19.82;100.00
12991;BME280;6560;57.692;11.958;2023-03-19T14:25:52;101061.53;;;21.33;100.00
12991;BME280;6560;57.692;11.958;2023-03-19T14:28:23;101036.75;;;21.40;100.00
12991;BME280;6560;57.692;11.958;2023-03-19T14:30:52;101052.56;;;19.99;100.00